Time,TemperatureF,DewpointF,PressureIn,WindDirection,WindDirectionDegrees,WindSpeedMPH,WindSpeedGustMPH,Humidity,HourlyPrecipIn,Conditions,Clouds,dailyrainin,SoftwareType,DateUTC
2013-06-02 00:00:00,57.4,32.0,30.24,WNW,288,0.0,0.0,35,0.00,,,-99.99,wx200d/1.3,2013-06-02 07:00:00,
2013-06-02 00:15:00,57.0,32.0,30.24,WNW,288,0.0,0.0,35,0.00,,,-99.99,wx200d/1.3,2013-06-02 07:15:00,
2013-06-02 00:30:00,56.8,32.0,30.24,WNW,288,0.0,0.0,36,0.00,,,-99.99,wx200d/1.3,2013-06-02 07:30:00,
2013-06-02 00:45:00,56.7,32.0,30.24,WNW,288,0.0,0.0,37,0.00,,,-99.99,wx200d/1.3,2013-06-02 07:45:00,
2013-06-02 01:00:00,56.3,32.0,30.24,WNW,288,0.0,0.0,38,0.00,,,-99.99,wx200d/1.3,2013-06-02 08:00:00,
2013-06-02 01:15:00,55.8,32.0,30.24,WNW,288,0.0,0.0,39,0.00,,,-99.99,wx200d/1.3,2013-06-02 08:15:00,
2013-06-02 01:30:00,55.4,32.0,30.24,WNW,288,0.0,0.0,40,0.00,,,-99.99,wx200d/1.3,2013-06-02 08:30:00,
2013-06-02 01:45:00,55.0,34.0,30.24,WNW,285,0.0,0.0,45,0.00,,,-99.99,wx200d/1.3,2013-06-02 08:45:00,
2013-06-02 02:00:00,54.7,36.0,30.24,WNW,285,0.0,0.0,48,0.00,,,-99.99,wx200d/1.3,2013-06-02 09:00:00,
2013-06-02 02:15:00,54.5,37.0,30.24,WNW,285,0.0,0.0,49,0.00,,,-99.99,wx200d/1.3,2013-06-02 09:15:00,
2013-06-02 02:30:00,54.3,36.0,30.24,WNW,285,0.0,0.0,49,0.00,,,-99.99,wx200d/1.3,2013-06-02 09:30:00,
2013-06-02 02:45:00,54.3,36.0,30.24,West,268,0.0,0.0,50,0.00,,,-99.99,wx200d/1.3,2013-06-02 09:45:00,
2013-06-02 03:00:00,53.8,36.0,30.24,West,268,0.0,0.0,51,0.00,,,-99.99,wx200d/1.3,2013-06-02 10:00:00,
2013-06-02 03:15:00,53.6,37.0,30.24,West,268,0.0,0.0,52,0.00,,,-99.99,wx200d/1.3,2013-06-02 10:15:00,
2013-06-02 03:30:00,53.4,37.0,30.21,West,268,0.0,0.0,53,0.00,,,-99.99,wx200d/1.3,2013-06-02 10:30:00,
2013-06-02 03:45:00,53.4,37.0,30.21,West,268,0.0,0.0,54,0.00,,,-99.99,wx200d/1.3,2013-06-02 10:45:00,
2013-06-02 04:00:00,53.1,37.0,30.21,West,268,0.0,0.0,55,0.00,,,-99.99,wx200d/1.3,2013-06-02 11:00:00,
2013-06-02 04:15:00,53.1,37.0,30.21,West,268,0.0,0.0,55,0.00,,,-99.99,wx200d/1.3,2013-06-02 11:15:00,
2013-06-02 04:30:00,52.9,39.0,30.21,West,268,0.0,0.0,56,0.00,,,-99.99,wx200d/1.3,2013-06-02 11:30:00,
2013-06-02 04:45:00,52.7,39.0,30.21,West,268,0.0,0.0,56,0.00,,,-99.99,wx200d/1.3,2013-06-02 11:45:00,
2013-06-02 05:00:00,52.3,37.0,30.21,West,268,0.0,0.0,57,0.00,,,-99.99,wx200d/1.3,2013-06-02 12:00:00,
2013-06-02 05:15:00,52.3,37.0,30.21,West,268,0.0,0.0,59,0.00,,,-99.99,wx200d/1.3,2013-06-02 12:15:00,
2013-06-02 05:30:00,52.0,37.0,30.21,West,268,0.0,0.0,59,0.00,,,-99.99,wx200d/1.3,2013-06-02 12:30:00,
2013-06-02 05:45:00,52.2,37.0,30.21,West,268,0.0,0.0,60,0.00,,,-99.99,wx200d/1.3,2013-06-02 12:45:00,
2013-06-02 06:00:00,52.5,39.0,30.21,West,268,0.0,0.0,61,0.00,,,-99.99,wx200d/1.3,2013-06-02 13:00:00,
2013-06-02 06:15:00,53.6,41.0,30.24,West,268,0.0,0.0,61,0.00,,,-99.99,wx200d/1.3,2013-06-02 13:15:00,
2013-06-02 06:30:00,54.5,41.0,30.24,West,268,0.0,0.0,58,0.00,,,-99.99,wx200d/1.3,2013-06-02 13:30:00,
2013-06-02 06:45:00,56.3,41.0,30.24,West,268,0.0,0.0,56,0.00,,,-99.99,wx200d/1.3,2013-06-02 13:45:00,
2013-06-02 07:00:00,62.8,39.0,30.24,West,268,0.0,0.0,41,0.00,,,-99.99,wx200d/1.3,2013-06-02 14:00:00,
2013-06-02 07:15:00,71.4,32.0,30.24,West,268,0.0,0.0,23,0.00,,,-99.99,wx200d/1.3,2013-06-02 14:15:00,
2013-06-02 07:30:00,73.9,32.0,30.24,West,268,0.0,0.0,18,0.00,,,-99.99,wx200d/1.3,2013-06-02 14:30:00,
2013-06-02 07:45:00,70.5,32.0,30.24,West,268,0.0,0.0,19,0.00,,,-99.99,wx200d/1.3,2013-06-02 14:45:00,
2013-06-02 08:00:00,68.5,32.0,30.24,West,268,0.0,0.0,20,0.00,,,-99.99,wx200d/1.3,2013-06-02 15:00:00,
2013-06-02 08:15:00,64.6,32.0,30.21,West,268,0.0,0.0,23,0.00,,,-99.99,wx200d/1.3,2013-06-02 15:15:00,
2013-06-02 08:30:00,63.5,32.0,30.24,West,268,0.0,0.0,25,0.00,,,-99.99,wx200d/1.3,2013-06-02 15:30:00,
2013-06-02 08:45:00,63.3,32.0,30.24,West,268,0.0,0.0,25,0.00,,,-99.99,wx200d/1.3,2013-06-02 15:45:00,
2013-06-02 09:00:00,63.1,32.0,30.24,North,0,0.0,0.0,25,0.00,,,-99.99,wx200d/1.3,2013-06-02 16:00:00,
2013-06-02 09:15:00,63.1,32.0,30.24,ENE,67,0.0,0.0,26,0.00,,,-99.99,wx200d/1.3,2013-06-02 16:15:00,
2013-06-02 09:30:00,63.0,32.0,30.24,West,262,0.0,0.0,26,0.00,,,-99.99,wx200d/1.3,2013-06-02 16:30:00,
2013-06-02 09:45:00,62.2,32.0,30.24,East,83,0.0,0.0,27,0.00,,,-99.99,wx200d/1.3,2013-06-02 16:45:00,
2013-06-02 10:00:00,62.6,32.0,30.24,East,94,0.0,0.0,26,0.00,,,-99.99,wx200d/1.3,2013-06-02 17:00:00,
2013-06-02 10:15:00,63.5,32.0,30.21,East,90,0.0,0.0,26,0.00,,,-99.99,wx200d/1.3,2013-06-02 17:15:00,
2013-06-02 10:30:00,63.5,32.0,30.21,WNW,287,0.0,0.0,26,0.00,,,-99.99,wx200d/1.3,2013-06-02 17:30:00,
2013-06-02 10:45:00,64.2,32.0,30.24,ENE,59,0.0,0.0,26,0.00,,,-99.99,wx200d/1.3,2013-06-02 17:45:00,
2013-06-02 11:00:00,64.0,32.0,30.24,East,88,0.0,0.0,26,0.00,,,-99.99,wx200d/1.3,2013-06-02 18:00:00,
2013-06-02 11:15:00,63.7,32.0,30.24,ENE,66,2.2,2.2,26,0.00,,,-99.99,wx200d/1.3,2013-06-02 18:15:00,
2013-06-02 11:30:00,63.9,32.0,30.24,ENE,64,2.2,2.7,26,0.00,,,-99.99,wx200d/1.3,2013-06-02 18:30:00,
2013-06-02 11:45:00,65.1,32.0,30.21,West,278,0.0,0.0,25,0.00,,,-99.99,wx200d/1.3,2013-06-02 18:45:00,
2013-06-02 12:00:00,66.7,32.0,30.21,WNW,283,0.0,0.0,24,0.00,,,-99.99,wx200d/1.3,2013-06-02 19:00:00,
2013-06-02 12:15:00,66.9,32.0,30.21,ENE,78,0.0,0.0,24,0.00,,,-99.99,wx200d/1.3,2013-06-02 19:15:00,
2013-06-02 12:30:00,67.1,32.0,30.21,NW,312,0.0,0.0,23,0.00,,,-99.99,wx200d/1.3,2013-06-02 19:30:00,
2013-06-02 12:45:00,66.9,32.0,30.21,West,275,0.0,3.1,23,0.00,,,-99.99,wx200d/1.3,2013-06-02 19:45:00,
2013-06-02 13:00:00,68.0,32.0,30.21,West,279,0.0,0.0,23,0.00,,,-99.99,wx200d/1.3,2013-06-02 20:00:00,
2013-06-02 13:15:00,67.8,32.0,30.21,West,260,0.0,2.7,23,0.00,,,-99.99,wx200d/1.3,2013-06-02 20:15:00,
2013-06-02 13:30:00,67.5,32.0,30.18,West,272,0.0,0.0,23,0.00,,,-99.99,wx200d/1.3,2013-06-02 20:30:00,
2013-06-02 13:45:00,67.5,32.0,30.18,ESE,105,2.7,3.6,23,0.00,,,-99.99,wx200d/1.3,2013-06-02 20:45:00,
2013-06-02 14:00:00,67.8,32.0,30.18,WNW,290,0.0,0.0,23,0.00,,,-99.99,wx200d/1.3,2013-06-02 21:00:00,
2013-06-02 14:15:00,67.1,32.0,30.18,East,81,0.0,0.0,23,0.00,,,-99.99,wx200d/1.3,2013-06-02 21:15:00,
2013-06-02 14:30:00,66.9,32.0,30.18,West,270,0.0,2.7,23,0.00,,,-99.99,wx200d/1.3,2013-06-02 21:30:00,
2013-06-02 14:45:00,65.8,32.0,30.18,East,88,3.1,5.4,24,0.00,,,-99.99,wx200d/1.3,2013-06-02 21:45:00,
2013-06-02 15:00:00,64.9,32.0,30.18,WNW,282,2.2,4.0,24,0.00,,,-99.99,wx200d/1.3,2013-06-02 22:00:00,
2013-06-02 15:15:00,64.8,32.0,30.18,WSW,250,3.1,0.0,25,0.00,,,-99.99,wx200d/1.3,2013-06-02 22:15:00,
2013-06-02 15:30:00,64.4,32.0,30.18,East,90,0.0,0.0,25,0.00,,,-99.99,wx200d/1.3,2013-06-02 22:30:00,
2013-06-02 15:45:00,64.2,32.0,30.18,West,276,2.2,0.0,25,0.00,,,-99.99,wx200d/1.3,2013-06-02 22:45:00,
2013-06-02 16:00:00,64.2,32.0,30.18,West,271,2.7,4.0,25,0.00,,,-99.99,wx200d/1.3,2013-06-02 23:00:00,
2013-06-02 16:15:00,64.6,32.0,30.18,West,280,3.1,3.6,24,0.00,,,-99.99,wx200d/1.3,2013-06-02 23:15:00,
2013-06-02 16:30:00,64.6,32.0,30.18,WNW,283,2.7,2.7,24,0.00,,,-99.99,wx200d/1.3,2013-06-02 23:30:00,
2013-06-02 16:45:00,64.4,32.0,30.18,East,90,0.0,2.7,25,0.00,,,-99.99,wx200d/1.3,2013-06-02 23:45:00,
2013-06-02 17:00:00,65.3,32.0,30.15,WNW,294,0.0,2.2,24,0.00,,,-99.99,wx200d/1.3,2013-06-03 00:00:00,
2013-06-02 17:15:00,64.9,32.0,30.15,East,86,2.2,2.7,24,0.00,,,-99.99,wx200d/1.3,2013-06-03 00:15:00,
2013-06-02 17:30:00,65.3,32.0,30.18,East,80,0.0,4.0,24,0.00,,,-99.99,wx200d/1.3,2013-06-03 00:30:00,
2013-06-02 17:45:00,66.9,32.0,30.18,ENE,78,0.0,3.1,24,0.00,,,-99.99,wx200d/1.3,2013-06-03 00:45:00,
2013-06-02 18:00:00,68.0,32.0,30.15,WSW,257,0.0,0.0,23,0.00,,,-99.99,wx200d/1.3,2013-06-03 01:00:00,
2013-06-02 18:15:00,71.2,32.0,30.15,West,280,0.0,2.2,22,0.00,,,-99.99,wx200d/1.3,2013-06-03 01:15:00,
2013-06-02 18:30:00,70.5,32.0,30.15,ENE,68,0.0,0.0,22,0.00,,,-99.99,wx200d/1.3,2013-06-03 01:30:00,
2013-06-02 18:45:00,63.7,32.0,30.15,WNW,283,2.7,2.7,24,0.00,,,-99.99,wx200d/1.3,2013-06-03 01:45:00,
2013-06-02 19:00:00,60.4,32.0,30.15,North,11,0.0,0.0,29,0.00,,,-99.99,wx200d/1.3,2013-06-03 02:00:00,
2013-06-02 19:15:00,58.6,32.0,30.15,WNW,282,0.0,0.0,35,0.00,,,-99.99,wx200d/1.3,2013-06-03 02:15:00,
2013-06-02 19:30:00,57.4,32.0,30.15,West,272,0.0,0.0,39,0.00,,,-99.99,wx200d/1.3,2013-06-03 02:30:00,
2013-06-02 19:45:00,56.7,36.0,30.18,ENE,70,0.0,3.6,43,0.00,,,-99.99,wx200d/1.3,2013-06-03 02:45:00,
2013-06-02 20:00:00,55.8,36.0,30.18,East,86,2.7,4.0,47,0.00,,,-99.99,wx200d/1.3,2013-06-03 03:00:00,
2013-06-02 20:15:00,55.0,37.0,30.15,East,100,2.2,2.2,52,0.00,,,-99.99,wx200d/1.3,2013-06-03 03:15:00,
2013-06-02 20:30:00,54.3,39.0,30.15,West,273,0.0,0.0,57,0.00,,,-99.99,wx200d/1.3,2013-06-03 03:30:00,
2013-06-02 20:45:00,53.6,39.0,30.18,West,276,0.0,0.0,60,0.00,,,-99.99,wx200d/1.3,2013-06-03 03:45:00,
2013-06-02 21:00:00,53.8,41.0,30.18,ESE,123,2.2,0.0,63,0.00,,,-99.99,wx200d/1.3,2013-06-03 04:00:00,
2013-06-02 21:15:00,54.0,41.0,30.18,West,275,2.2,0.0,63,0.00,,,-99.99,wx200d/1.3,2013-06-03 04:15:00,
2013-06-02 21:30:00,53.6,41.0,30.18,NE,56,0.0,0.0,63,0.00,,,-99.99,wx200d/1.3,2013-06-03 04:30:00,
2013-06-02 21:45:00,53.6,41.0,30.18,SSW,193,2.2,3.6,64,0.00,,,-99.99,wx200d/1.3,2013-06-03 04:45:00,
2013-06-02 22:00:00,53.2,43.0,30.18,ESE,114,2.2,0.0,68,0.00,,,-99.99,wx200d/1.3,2013-06-03 05:00:00,
2013-06-02 22:15:00,52.7,45.0,30.18,NNW,334,0.0,2.2,71,0.00,,,-99.99,wx200d/1.3,2013-06-03 05:15:00,
2013-06-02 22:30:00,52.5,45.0,30.18,ENE,70,0.0,0.0,74,0.00,,,-99.99,wx200d/1.3,2013-06-03 05:30:00,
2013-06-02 22:45:00,52.3,45.0,30.18,ESE,123,0.0,2.2,76,0.00,,,-99.99,wx200d/1.3,2013-06-03 05:45:00,
2013-06-02 23:00:00,52.3,45.0,30.18,West,281,0.0,0.0,77,0.00,,,-99.99,wx200d/1.3,2013-06-03 06:00:00,
2013-06-02 23:15:00,52.2,46.0,30.18,SE,129,0.0,0.0,79,0.00,,,-99.99,wx200d/1.3,2013-06-03 06:15:00,
2013-06-02 23:30:00,52.2,46.0,30.18,WNW,288,0.0,0.0,80,0.00,,,-99.99,wx200d/1.3,2013-06-03 06:30:00,
2013-06-02 23:45:00,52.0,46.0,30.18,WNW,287,0.0,0.0,80,0.00,,,-99.99,wx200d/1.3,2013-06-03 06:45:00,